sensor_id;sensor_type;location;lat;lon;timestamp;pressure;altitude;pressure_sealevel;temperature;humidity
40592;BME280;26301;42.832;23.918;2022-07-18T00:00:46;93960.03;;;11.91;64.37
40592;BME280;26301;42.832;23.918;2022-07-18T00:03:12;93940.72;;;11.75;64.67
40592;BME280;26301;42.832;23.918;2022-07-18T00:05:38;93967.50;;;11.69;65.36
40592;BME280;26301;42.832;23.918;2022-07-18T00:08:04;93958.03;;;11.63;66.19
40592;BME280;26301;42.832;23.918;2022-07-18T00:10:31;93955.09;;;11.59;65.84
40592;BME280;26301;42.832;23.918;2022-07-18T00:12:57;93954.44;;;11.52;64.11
40592;BME280;26301;42.832;23.918;2022-07-18T00:15:23;93971.94;;;11.50;65.09
40592;BME280;26301;42.832;23.918;2022-07-18T00:17:50;93969.53;;;11.37;67.47
40592;BME280;26301;42.832;23.918;2022-07-18T00:20:16;93969.09;;;11.40;65.04
40592;BME280;26301;42.832;23.918;2022-07-18T00:22:43;93965.81;;;11.33;64.27
40592;BME280;26301;42.832;23.918;2022-07-18T00:25:10;93969.06;;;11.28;64.30
40592;BME280;26301;42.832;23.918;2022-07-18T00:27:36;93974.63;;;11.13;65.57
40592;BME280;26301;42.832;23.918;2022-07-18T00:30:03;93973.38;;;11.16;64.84
40592;BME280;26301;42.832;23.918;2022-07-18T00:32:30;93980.00;;;11.12;63.43
40592;BME280;26301;42.832;23.918;2022-07-18T00:34:56;93980.22;;;11.10;64.68
40592;BME280;26301;42.832;23.918;2022-07-18T00:37:22;93987.31;;;11.15;64.48
40592;BME280;26301;42.832;23.918;2022-07-18T00:39:48;93965.88;;;10.96;65.22
40592;BME280;26301;42.832;23.918;2022-07-18T00:42:15;93985.06;;;11.18;67.83
40592;BME280;26301;42.832;23.918;2022-07-18T00:44:40;93988.53;;;11.12;64.99
40592;BME280;26301;42.832;23.918;2022-07-18T00:47:06;93986.03;;;11.06;65.34
40592;BME280;26301;42.832;23.918;2022-07-18T00:49:32;93976.41;;;10.94;65.62
40592;BME280;26301;42.832;23.918;2022-07-18T00:51:58;93962.09;;;10.80;65.44
40592;BME280;26301;42.832;23.918;2022-07-18T00:54:24;93976.56;;;10.81;65.95
40592;BME280;26301;42.832;23.918;2022-07-18T00:56:51;93994.81;;;10.86;66.10
40592;BME280;26301;42.832;23.918;2022-07-18T00:59:17;93993.53;;;10.95;66.80
40592;BME280;26301;42.832;23.918;2022-07-18T01:01:44;93952.72;;;10.79;65.97
40592;BME280;26301;42.832;23.918;2022-07-18T01:04:21;93975.78;;;10.81;65.14
40592;BME280;26301;42.832;23.918;2022-07-18T01:06:50;93997.41;;;10.86;65.74
40592;BME280;26301;42.832;23.918;2022-07-18T01:09:17;93976.06;;;10.72;65.62
40592;BME280;26301;42.832;23.918;2022-07-18T01:11:44;93989.84;;;10.85;66.08
40592;BME280;26301;42.832;23.918;2022-07-18T01:14:12;93995.94;;;10.90;66.15
40592;BME280;26301;42.832;23.918;2022-07-18T01:16:38;93993.13;;;10.92;66.45
40592;BME280;26301;42.832;23.918;2022-07-18T01:19:05;93962.56;;;10.70;65.26
40592;BME280;26301;42.832;23.918;2022-07-18T01:21:31;93988.41;;;10.70;64.92
40592;BME280;26301;42.832;23.918;2022-07-18T01:23:57;93970.97;;;10.66;65.98
40592;BME280;26301;42.832;23.918;2022-07-18T01:26:24;93997.69;;;10.78;65.10
40592;BME280;26301;42.832;23.918;2022-07-18T01:28:50;93990.44;;;10.68;64.46
40592;BME280;26301;42.832;23.918;2022-07-18T01:31:16;93998.25;;;10.80;66.32
40592;BME280;26301;42.832;23.918;2022-07-18T01:33:42;93988.81;;;10.67;65.79
40592;BME280;26301;42.832;23.918;2022-07-18T01:36:08;93984.38;;;10.56;65.49
40592;BME280;26301;42.832;23.918;2022-07-18T01:38:35;93993.72;;;10.57;66.04
40592;BME280;26301;42.832;23.918;2022-07-18T01:41:01;93975.47;;;10.52;66.58
40592;BME280;26301;42.832;23.918;2022-07-18T01:43:28;93977.06;;;10.53;66.60
40592;BME280;26301;42.832;23.918;2022-07-18T01:45:54;93995.34;;;10.51;66.28
40592;BME280;26301;42.832;23.918;2022-07-18T01:48:21;93998.94;;;10.50;66.53
40592;BME280;26301;42.832;23.918;2022-07-18T01:50:49;93974.06;;;10.31;67.15
40592;BME280;26301;42.832;23.918;2022-07-18T01:53:15;93993.81;;;10.44;67.29
40592;BME280;26301;42.832;23.918;2022-07-18T01:55:41;93994.31;;;10.34;67.81
40592;BME280;26301;42.832;23.918;2022-07-18T01:58:07;93992.97;;;10.25;67.23
40592;BME280;26301;42.832;23.918;2022-07-18T02:00:33;93975.09;;;10.05;68.52
40592;BME280;26301;42.832;23.918;2022-07-18T02:02:59;93979.41;;;10.11;70.69
40592;BME280;26301;42.832;23.918;2022-07-18T02:05:25;93994.81;;;10.18;68.93
40592;BME280;26301;42.832;23.918;2022-07-18T02:07:52;93978.88;;;10.02;69.03
40592;BME280;26301;42.832;23.918;2022-07-18T02:10:20;93997.19;;;10.19;68.13
40592;BME280;26301;42.832;23.918;2022-07-18T02:12:46;93975.09;;;10.05;68.89
40592;BME280;26301;42.832;23.918;2022-07-18T02:15:14;93998.81;;;10.14;68.75
40592;BME280;26301;42.832;23.918;2022-07-18T02:17:42;93999.03;;;10.12;69.27
40592;BME280;26301;42.832;23.918;2022-07-18T02:20:12;93998.81;;;10.14;69.04
40592;BME280;26301;42.832;23.918;2022-07-18T02:22:38;93980.69;;;9.95;69.12
40592;BME280;26301;42.832;23.918;2022-07-18T02:25:05;93984.16;;;9.82;70.18
40592;BME280;26301;42.832;23.918;2022-07-18T02:27:31;94013.03;;;9.98;70.06
40592;BME280;26301;42.832;23.918;2022-07-18T02:29:57;94015.84;;;9.96;70.08
40592;BME280;26301;42.832;23.918;2022-07-18T02:32:24;94005.88;;;10.00;69.92
40592;BME280;26301;42.832;23.918;2022-07-18T02:34:51;93998.03;;;9.88;71.34
40592;BME280;26301;42.832;23.918;2022-07-18T02:37:17;94000.38;;;9.90;71.17
40592;BME280;26301;42.832;23.918;2022-07-18T02:39:43;93980.50;;;9.65;70.45
40592;BME280;26301;42.832;23.918;2022-07-18T02:42:09;94000.72;;;9.75;70.93
40592;BME280;26301;42.832;23.918;2022-07-18T02:44:36;94012.19;;;9.79;71.30
40592;BME280;26301;42.832;23.918;2022-07-18T02:47:02;93993.22;;;9.67;71.43
40592;BME280;26301;42.832;23.918;2022-07-18T02:49:29;94005.88;;;9.68;71.96
40592;BME280;26301;42.832;23.918;2022-07-18T02:52:08;93995.97;;;9.72;71.73
40592;BME280;26301;42.832;23.918;2022-07-18T02:54:37;94002.88;;;9.71;72.33
40592;BME280;26301;42.832;23.918;2022-07-18T02:57:03;94006.91;;;9.67;71.52
40592;BME280;26301;42.832;23.918;2022-07-18T02:59:29;94011.41;;;9.78;73.33
40592;BME280;26301;42.832;23.918;2022-07-18T03:01:56;94001.13;;;9.72;71.74
40592;BME280;26301;42.832;23.918;2022-07-18T03:04:23;93990.88;;;9.58;71.75
40592;BME280;26301;42.832;23.918;2022-07-18T03:06:50;94006.09;;;9.67;71.79
40592;BME280;26301;42.832;23.918;2022-07-18T03:09:16;94014.59;;;9.74;71.57
40592;BME280;26301;42.832;23.918;2022-07-18T03:11:43;94016.44;;;9.67;71.85
40592;BME280;26301;42.832;23.918;2022-07-18T03:14:09;94012.06;;;9.67;73.45
40592;BME280;26301;42.832;23.918;2022-07-18T03:16:35;94004.97;;;9.56;72.25
40592;BME280;26301;42.832;23.918;2022-07-18T03:19:01;94024.91;;;9.74;72.06
40592;BME280;26301;42.832;23.918;2022-07-18T03:21:27;94016.38;;;9.73;71.58
40592;BME280;26301;42.832;23.918;2022-07-18T03:23:54;94018.66;;;9.88;70.50
40592;BME280;26301;42.832;23.918;2022-07-18T03:26:20;93992.16;;;9.74;71.15
40592;BME280;26301;42.832;23.918;2022-07-18T03:28:46;94013.69;;;9.93;70.93
40592;BME280;26301;42.832;23.918;2022-07-18T03:31:12;94021.31;;;10.06;71.44
40592;BME280;26301;42.832;23.918;2022-07-18T03:33:39;94001.94;;;9.97;70.77
40592;BME280;26301;42.832;23.918;2022-07-18T03:36:05;93986.28;;;9.92;72.46
40592;BME280;26301;42.832;23.918;2022-07-18T03:38:31;94004.34;;;9.92;70.56
40592;BME280;26301;42.832;23.918;2022-07-18T03:40:57;94025.16;;;9.97;70.84
40592;BME280;26301;42.832;23.918;2022-07-18T03:43:23;94012.31;;;9.91;71.03
40592;BME280;26301;42.832;23.918;2022-07-18T03:45:50;94015.06;;;9.96;70.29
40592;BME280;26301;42.832;23.918;2022-07-18T03:48:16;94007.31;;;9.96;71.80
40592;BME280;26301;42.832;23.918;2022-07-18T03:50:42;94021.06;;;10.15;72.97
40592;BME280;26301;42.832;23.918;2022-07-18T03:53:08;94021.25;;;10.13;71.33
40592;BME280;26301;42.832;23.918;2022-07-18T03:55:34;94012.69;;;10.19;70.92
40592;BME280;26301;42.832;23.918;2022-07-18T03:58:00;94000.41;;;10.15;70.93
40592;BME280;26301;42.832;23.918;2022-07-18T04:00:29;94026.41;;;10.45;70.65
40592;BME280;26301;42.832;23.918;2022-07-18T04:02:55;94017.75;;;10.76;69.44
40592;BME280;26301;42.832;23.918;2022-07-18T04:05:21;94023.38;;;11.10;68.91
40592;BME280;26301;42.832;23.918;2022-07-18T04:07:48;93996.69;;;11.28;68.18
40592;BME280;26301;42.832;23.918;2022-07-18T04:10:14;93985.81;;;11.56;66.50
40592;BME280;26301;42.832;23.918;2022-07-18T04:12:51;94005.63;;;11.92;66.20
40592;BME280;26301;42.832;23.918;2022-07-18T04:15:19;94010.78;;;12.34;64.98
40592;BME280;26301;42.832;23.918;2022-07-18T04:17:45;94002.44;;;12.67;64.39
40592;BME280;26301;42.832;23.918;2022-07-18T04:20:12;93984.34;;;12.96;62.13
40592;BME280;26301;42.832;23.918;2022-07-18T04:22:56;94009.88;;;13.39;61.91
40592;BME280;26301;42.832;23.918;2022-07-18T04:25:24;94002.09;;;13.68;61.00
40592;BME280;26301;42.832;23.918;2022-07-18T04:27:51;94006.38;;;13.91;59.41
40592;BME280;26301;42.832;23.918;2022-07-18T04:30:19;93996.16;;;14.01;58.63
40592;BME280;26301;42.832;23.918;2022-07-18T04:32:46;93992.81;;;14.17;58.63
40592;BME280;26301;42.832;23.918;2022-07-18T04:35:13;94001.84;;;14.49;57.80
40592;BME280;26301;42.832;23.918;2022-07-18T04:37:39;94001.50;;;14.79;57.35
40592;BME280;26301;42.832;23.918;2022-07-18T04:40:08;93995.13;;;15.08;56.56
40592;BME280;26301;42.832;23.918;2022-07-18T04:42:34;94003.41;;;15.49;60.74
40592;BME280;26301;42.832;23.918;2022-07-18T04:45:03;93979.88;;;15.66;57.47
40592;BME280;26301;42.832;23.918;2022-07-18T04:47:30;94002.22;;;16.11;58.38
40592;BME280;26301;42.832;23.918;2022-07-18T04:49:57;93988.91;;;16.45;58.70
40592;BME280;26301;42.832;23.918;2022-07-18T04:52:24;94008.19;;;16.81;59.18
40592;BME280;26301;42.832;23.918;2022-07-18T04:54:50;93997.91;;;17.07;58.24
40592;BME280;26301;42.832;23.918;2022-07-18T04:57:17;93943.84;;;17.02;57.18
40592;BME280;26301;42.832;23.918;2022-07-18T04:59:44;93979.56;;;17.54;50.05
40592;BME280;26301;42.832;23.918;2022-07-18T05:02:10;93999.00;;;17.94;56.67
40592;BME280;26301;42.832;23.918;2022-07-18T05:04:37;93988.56;;;18.15;52.31
40592;BME280;26301;42.832;23.918;2022-07-18T05:07:03;93983.34;;;18.35;55.78
40592;BME280;26301;42.832;23.918;2022-07-18T05:09:30;93994.03;;;18.69;55.95
40592;BME280;26301;42.832;23.918;2022-07-18T05:11:56;93994.78;;;18.90;55.72
40592;BME280;26301;42.832;23.918;2022-07-18T05:14:22;94003.09;;;19.18;55.10
40592;BME280;26301;42.832;23.918;2022-07-18T05:16:50;93992.00;;;19.41;54.62
40592;BME280;26301;42.832;23.918;2022-07-18T05:19:16;93999.50;;;19.58;52.90
40592;BME280;26301;42.832;23.918;2022-07-18T05:21:43;94003.69;;;19.70;50.49
40592;BME280;26301;42.832;23.918;2022-07-18T05:24:10;94008.56;;;19.86;47.46
40592;BME280;26301;42.832;23.918;2022-07-18T05:26:36;93985.22;;;19.90;44.38
40592;BME280;26301;42.832;23.918;2022-07-18T05:29:03;93981.16;;;20.08;42.25
40592;BME280;26301;42.832;23.918;2022-07-18T05:31:29;94004.00;;;20.42;40.48
40592;BME280;26301;42.832;23.918;2022-07-18T05:33:56;94007.28;;;20.58;41.80
40592;BME280;26301;42.832;23.918;2022-07-18T05:36:22;93993.16;;;20.53;41.05
40592;BME280;26301;42.832;23.918;2022-07-18T05:38:47;93978.16;;;20.59;39.71
40592;BME280;26301;42.832;23.918;2022-07-18T05:41:14;94015.13;;;20.92;40.03
40592;BME280;26301;42.832;23.918;2022-07-18T05:43:40;94013.41;;;21.06;39.54
40592;BME280;26301;42.832;23.918;2022-07-18T05:46:06;94011.78;;;21.10;41.38
40592;BME280;26301;42.832;23.918;2022-07-18T05:48:33;94015.81;;;21.27;43.10
40592;BME280;26301;42.832;23.918;2022-07-18T05:50:59;94006.53;;;21.34;40.12
40592;BME280;26301;42.832;23.918;2022-07-18T05:53:25;94008.09;;;21.35;39.66
40592;BME280;26301;42.832;23.918;2022-07-18T05:55:52;94012.19;;;21.46;38.71
40592;BME280;26301;42.832;23.918;2022-07-18T05:58:17;93999.94;;;21.61;38.87
40592;BME280;26301;42.832;23.918;2022-07-18T06:00:44;93996.03;;;21.58;36.89
40592;BME280;26301;42.832;23.918;2022-07-18T06:03:10;94009.56;;;21.46;36.92
40592;BME280;26301;42.832;23.918;2022-07-18T06:05:37;93985.25;;;21.36;37.24
40592;BME280;26301;42.832;23.918;2022-07-18T06:08:03;93997.09;;;21.57;37.91
40592;BME280;26301;42.832;23.918;2022-07-18T06:10:30;93990.72;;;21.63;37.72
40592;BME280;26301;42.832;23.918;2022-07-18T06:12:55;93993.81;;;21.65;36.96
40592;BME280;26301;42.832;23.918;2022-07-18T06:15:24;93995.47;;;21.80;37.86
40592;BME280;26301;42.832;23.918;2022-07-18T06:17:51;94010.75;;;21.97;35.95
40592;BME280;26301;42.832;23.918;2022-07-18T06:20:18;93999.09;;;22.03;35.71
40592;BME280;26301;42.832;23.918;2022-07-18T06:22:44;93990.06;;;22.09;35.51
40592;BME280;26301;42.832;23.918;2022-07-18T06:25:10;93990.94;;;22.24;35.40
40592;BME280;26301;42.832;23.918;2022-07-18T06:27:37;94006.72;;;22.24;37.42
40592;BME280;26301;42.832;23.918;2022-07-18T06:30:04;93984.03;;;22.28;36.71
40592;BME280;26301;42.832;23.918;2022-07-18T06:32:30;93974.06;;;22.25;36.90
40592;BME280;26301;42.832;23.918;2022-07-18T06:34:57;93992.28;;;22.54;35.97
40592;BME280;26301;42.832;23.918;2022-07-18T06:37:23;94011.50;;;22.54;35.51
40592;BME280;26301;42.832;23.918;2022-07-18T06:39:49;94013.84;;;22.56;33.56
40592;BME280;26301;42.832;23.918;2022-07-18T06:42:15;94013.97;;;22.65;35.84
40592;BME280;26301;42.832;23.918;2022-07-18T06:44:42;94014.00;;;22.78;36.50
40592;BME280;26301;42.832;23.918;2022-07-18T06:47:08;94018.88;;;22.85;35.08
40592;BME280;26301;42.832;23.918;2022-07-18T06:49:34;94002.50;;;22.88;36.28
40592;BME280;26301;42.832;23.918;2022-07-18T06:52:00;94018.47;;;23.11;38.59
40592;BME280;26301;42.832;23.918;2022-07-18T06:54:27;94010.56;;;23.24;34.56
40592;BME280;26301;42.832;23.918;2022-07-18T06:56:54;94021.13;;;23.38;35.59
40592;BME280;26301;42.832;23.918;2022-07-18T06:59:20;94015.13;;;23.46;36.39
40592;BME280;26301;42.832;23.918;2022-07-18T07:01:46;94019.16;;;23.44;33.65
40592;BME280;26301;42.832;23.918;2022-07-18T07:04:12;94012.81;;;23.45;35.47
40592;BME280;26301;42.832;23.918;2022-07-18T07:06:39;94022.09;;;23.56;35.54
40592;BME280;26301;42.832;23.918;2022-07-18T07:09:06;94006.63;;;23.49;33.55
40592;BME280;26301;42.832;23.918;2022-07-18T07:11:32;94026.28;;;23.71;34.77
40592;BME280;26301;42.832;23.918;2022-07-18T07:13:58;94003.50;;;23.61;34.09
40592;BME280;26301;42.832;23.918;2022-07-18T07:16:24;94021.75;;;23.85;34.57
40592;BME280;26301;42.832;23.918;2022-07-18T07:18:50;94024.41;;;23.85;32.02
40592;BME280;26301;42.832;23.918;2022-07-18T07:21:16;94026.75;;;23.87;31.86
40592;BME280;26301;42.832;23.918;2022-07-18T07:23:42;94019.03;;;23.77;33.65
40592;BME280;26301;42.832;23.918;2022-07-18T07:26:08;94028.97;;;23.93;31.47
40592;BME280;26301;42.832;23.918;2022-07-18T07:28:34;94009.06;;;23.87;32.65
40592;BME280;26301;42.832;23.918;2022-07-18T07:31:00;94023.09;;;24.10;31.44
40592;BME280;26301;42.832;23.918;2022-07-18T07:33:27;94006.09;;;24.03;32.24
40592;BME280;26301;42.832;23.918;2022-07-18T07:35:53;94028.78;;;24.26;29.44
40592;BME280;26301;42.832;23.918;2022-07-18T07:38:19;94029.75;;;24.30;30.15
40592;BME280;26301;42.832;23.918;2022-07-18T07:40:46;94025.03;;;24.41;31.06
40592;BME280;26301;42.832;23.918;2022-07-18T07:43:15;94026.06;;;24.54;31.90
40592;BME280;26301;42.832;23.918;2022-07-18T07:45:43;94010.41;;;24.57;30.42
40592;BME280;26301;42.832;23.918;2022-07-18T07:48:11;94024.03;;;24.73;29.32
40592;BME280;26301;42.832;23.918;2022-07-18T07:50:37;93999.44;;;24.64;31.92
40592;BME280;26301;42.832;23.918;2022-07-18T07:53:04;94011.09;;;24.94;31.89
40592;BME280;26301;42.832;23.918;2022-07-18T07:55:30;94020.47;;;25.09;30.41
40592;BME280;26301;42.832;23.918;2022-07-18T07:57:57;94019.47;;;24.96;30.20
40592;BME280;26301;42.832;23.918;2022-07-18T08:00:24;94017.03;;;25.08;31.07
40592;BME280;26301;42.832;23.918;2022-07-18T08:02:56;94004.50;;;24.83;29.73
40592;BME280;26301;42.832;23.918;2022-07-18T08:05:22;94007.31;;;24.86;30.32
40592;BME280;26301;42.832;23.918;2022-07-18T08:07:48;94018.63;;;25.09;30.79
40592;BME280;26301;42.832;23.918;2022-07-18T08:10:14;94008.94;;;25.27;31.51
40592;BME280;26301;42.832;23.918;2022-07-18T08:12:40;94010.81;;;25.36;31.25
40592;BME280;26301;42.832;23.918;2022-07-18T08:15:07;94000.41;;;25.39;30.69
40592;BME280;26301;42.832;23.918;2022-07-18T08:17:33;93997.06;;;25.16;30.83
40592;BME280;26301;42.832;23.918;2022-07-18T08:20:02;94001.41;;;24.90;29.24
40592;BME280;26301;42.832;23.918;2022-07-18T08:22:28;94012.69;;;25.04;28.25
40592;BME280;26301;42.832;23.918;2022-07-18T08:24:54;94009.88;;;25.09;27.83
40592;BME280;26301;42.832;23.918;2022-07-18T08:27:20;94000.22;;;25.36;29.80
40592;BME280;26301;42.832;23.918;2022-07-18T08:29:47;94018.84;;;25.70;30.05
40592;BME280;26301;42.832;23.918;2022-07-18T08:32:13;94004.88;;;25.87;29.74
40592;BME280;26301;42.832;23.918;2022-07-18T08:34:39;94006.63;;;26.00;28.48
40592;BME280;26301;42.832;23.918;2022-07-18T08:37:05;94003.97;;;26.09;27.39
40592;BME280;26301;42.832;23.918;2022-07-18T08:39:31;93993.38;;;26.00;27.35
40592;BME280;26301;42.832;23.918;2022-07-18T08:42:00;93997.91;;;26.09;30.64
40592;BME280;26301;42.832;23.918;2022-07-18T08:44:30;94003.03;;;26.22;30.35
40592;BME280;26301;42.832;23.918;2022-07-18T08:46:57;94010.66;;;26.41;32.35
40592;BME280;26301;42.832;23.918;2022-07-18T08:49:26;94004.28;;;26.16;31.15
40592;BME280;26301;42.832;23.918;2022-07-18T08:51:52;94008.50;;;26.17;33.65
40592;BME280;26301;42.832;23.918;2022-07-18T08:54:18;93994.63;;;26.12;32.50
40592;BME280;26301;42.832;23.918;2022-07-18T08:56:44;94008.03;;;26.33;32.29
40592;BME280;26301;42.832;23.918;2022-07-18T08:59:10;94011.44;;;26.25;32.46
40592;BME280;26301;42.832;23.918;2022-07-18T09:01:37;93995.41;;;26.30;33.48
40592;BME280;26301;42.832;23.918;2022-07-18T09:04:03;93993.06;;;26.19;32.09
40592;BME280;26301;42.832;23.918;2022-07-18T09:06:44;94011.44;;;26.25;31.83
40592;BME280;26301;42.832;23.918;2022-07-18T09:09:12;94008.94;;;26.11;32.70
40592;BME280;26301;42.832;23.918;2022-07-18T09:11:51;94011.28;;;26.21;31.73
40592;BME280;26301;42.832;23.918;2022-07-18T09:14:31;94012.69;;;26.27;34.48
40592;BME280;26301;42.832;23.918;2022-07-18T09:17:12;93994.28;;;25.96;31.36
40592;BME280;26301;42.832;23.918;2022-07-18T09:22:31;94005.22;;;26.20;34.64
40592;BME280;26301;42.832;23.918;2022-07-18T09:32:45;93980.91;;;26.36;31.98
40592;BME280;26301;42.832;23.918;2022-07-18T09:35:15;93993.06;;;26.63;33.85
40592;BME280;26301;42.832;23.918;2022-07-18T09:38:02;94000.38;;;26.57;31.33
40592;BME280;26301;42.832;23.918;2022-07-18T09:40:36;94003.03;;;26.57;31.58
40592;BME280;26301;42.832;23.918;2022-07-18T09:43:08;94006.44;;;26.66;34.06
40592;BME280;26301;42.832;23.918;2022-07-18T09:45:36;94000.84;;;26.59;31.09
40592;BME280;26301;42.832;23.918;2022-07-18T09:48:07;93998.81;;;26.65;32.09
40592;BME280;26301;42.832;23.918;2022-07-18T09:50:40;93979.63;;;26.68;34.35
40592;BME280;26301;42.832;23.918;2022-07-18T09:53:13;93999.88;;;26.73;32.35
40592;BME280;26301;42.832;23.918;2022-07-18T09:55:47;93993.28;;;26.96;34.31
40592;BME280;26301;42.832;23.918;2022-07-18T09:58:16;93986.34;;;27.12;35.16
40592;BME280;26301;42.832;23.918;2022-07-18T10:00:43;93985.69;;;27.33;31.66
40592;BME280;26301;42.832;23.918;2022-07-18T10:03:09;94000.03;;;27.32;32.92
40592;BME280;26301;42.832;23.918;2022-07-18T10:05:37;93973.22;;;27.25;33.14
40592;BME280;26301;42.832;23.918;2022-07-18T10:08:07;93993.28;;;27.64;30.94
40592;BME280;26301;42.832;23.918;2022-07-18T10:10:34;93997.00;;;27.80;31.26
40592;BME280;26301;42.832;23.918;2022-07-18T10:13:01;93991.22;;;27.78;30.93
40592;BME280;26301;42.832;23.918;2022-07-18T10:15:32;93983.84;;;27.54;33.36
40592;BME280;26301;42.832;23.918;2022-07-18T10:17:59;93996.63;;;27.52;32.17
40592;BME280;26301;42.832;23.918;2022-07-18T10:20:37;93994.19;;;27.47;31.85
40592;BME280;26301;42.832;23.918;2022-07-18T10:23:19;93993.41;;;27.17;34.73
40592;BME280;26301;42.832;23.918;2022-07-18T10:26:14;93992.38;;;27.30;33.01
40592;BME280;26301;42.832;23.918;2022-07-18T10:31:30;93997.56;;;27.27;33.89
40592;BME280;26301;42.832;23.918;2022-07-18T10:36:39;93972.69;;;27.40;33.68
40592;BME280;26301;42.832;23.918;2022-07-18T10:39:10;93984.56;;;27.64;32.68
40592;BME280;26301;42.832;23.918;2022-07-18T10:44:32;93970.50;;;27.42;33.56
40592;BME280;26301;42.832;23.918;2022-07-18T10:57:34;93972.72;;;27.61;33.68
40592;BME280;26301;42.832;23.918;2022-07-18T11:00:06;93978.06;;;27.52;35.13
40592;BME280;26301;42.832;23.918;2022-07-18T11:03:03;93968.09;;;27.79;30.71
40592;BME280;26301;42.832;23.918;2022-07-18T11:16:12;93968.69;;;28.26;32.91
40592;BME280;26301;42.832;23.918;2022-07-18T11:21:24;93973.25;;;28.59;30.71
40592;BME280;26301;42.832;23.918;2022-07-18T11:23:59;93947.00;;;28.37;30.97
40592;BME280;26301;42.832;23.918;2022-07-18T11:26:26;93954.31;;;27.86;32.16
40592;BME280;26301;42.832;23.918;2022-07-18T11:29:11;93964.16;;;27.55;32.25
40592;BME280;26301;42.832;23.918;2022-07-18T11:31:51;93968.25;;;27.74;34.04
40592;BME280;26301;42.832;23.918;2022-07-18T11:34:18;93951.78;;;27.39;32.30
40592;BME280;26301;42.832;23.918;2022-07-18T11:36:46;93961.25;;;27.19;31.56
40592;BME280;26301;42.832;23.918;2022-07-18T11:39:13;93952.00;;;27.25;32.25
40592;BME280;26301;42.832;23.918;2022-07-18T11:41:42;93938.84;;;27.37;32.85
40592;BME280;26301;42.832;23.918;2022-07-18T11:44:19;93943.50;;;27.91;34.19
40592;BME280;26301;42.832;23.918;2022-07-18T11:47:11;93939.69;;;28.00;33.00
40592;BME280;26301;42.832;23.918;2022-07-18T11:49:39;93944.75;;;27.93;35.61
40592;BME280;26301;42.832;23.918;2022-07-18T11:52:06;93933.97;;;27.69;35.17
40592;BME280;26301;42.832;23.918;2022-07-18T11:54:33;93949.88;;;27.69;33.21
40592;BME280;26301;42.832;23.918;2022-07-18T11:56:59;93941.19;;;27.39;31.98
40592;BME280;26301;42.832;23.918;2022-07-18T11:59:37;93945.16;;;27.53;32.92
40592;BME280;26301;42.832;23.918;2022-07-18T12:02:04;93928.53;;;27.65;32.24
40592;BME280;26301;42.832;23.918;2022-07-18T12:04:30;93930.75;;;27.84;32.83
40592;BME280;26301;42.832;23.918;2022-07-18T12:09:40;93935.66;;;28.15;32.68
40592;BME280;26301;42.832;23.918;2022-07-18T12:12:14;93926.56;;;27.83;33.16
40592;BME280;26301;42.832;23.918;2022-07-18T12:14:40;93927.84;;;27.26;32.72
40592;BME280;26301;42.832;23.918;2022-07-18T12:17:07;93929.28;;;27.15;33.58
40592;BME280;26301;42.832;23.918;2022-07-18T12:19:35;93932.16;;;27.31;34.47
40592;BME280;26301;42.832;23.918;2022-07-18T12:22:08;93922.97;;;27.28;34.60
40592;BME280;26301;42.832;23.918;2022-07-18T12:24:38;93924.25;;;27.73;34.65
40592;BME280;26301;42.832;23.918;2022-07-18T12:27:22;93921.72;;;27.76;31.55
40592;BME280;26301;42.832;23.918;2022-07-18T12:32:49;93934.03;;;28.44;34.46
40592;BME280;26301;42.832;23.918;2022-07-18T12:35:28;93929.88;;;28.34;33.39
40592;BME280;26301;42.832;23.918;2022-07-18T12:40:47;93938.25;;;28.03;34.21
40592;BME280;26301;42.832;23.918;2022-07-18T12:43:31;93923.97;;;28.29;33.55
40592;BME280;26301;42.832;23.918;2022-07-18T12:46:06;93907.50;;;28.02;33.73
40592;BME280;26301;42.832;23.918;2022-07-18T12:48:34;93929.41;;;27.99;33.98
40592;BME280;26301;42.832;23.918;2022-07-18T12:51:06;93931.78;;;27.92;33.51
40592;BME280;26301;42.832;23.918;2022-07-18T12:53:35;93923.44;;;27.81;32.69
40592;BME280;26301;42.832;23.918;2022-07-18T12:56:01;93913.00;;;27.76;33.46
40592;BME280;26301;42.832;23.918;2022-07-18T12:58:28;93933.22;;;27.39;32.58
40592;BME280;26301;42.832;23.918;2022-07-18T13:00:54;93921.34;;;27.45;34.16
40592;BME280;26301;42.832;23.918;2022-07-18T13:03:23;93919.72;;;27.73;34.39
40592;BME280;26301;42.832;23.918;2022-07-18T13:05:49;93929.94;;;27.92;33.08
40592;BME280;26301;42.832;23.918;2022-07-18T13:08:16;93914.00;;;27.92;33.06
40592;BME280;26301;42.832;23.918;2022-07-18T13:10:43;93917.50;;;27.84;32.97
40592;BME280;26301;42.832;23.918;2022-07-18T13:13:09;93909.31;;;27.47;32.24
40592;BME280;26301;42.832;23.918;2022-07-18T13:15:36;93927.84;;;27.26;33.84
40592;BME280;26301;42.832;23.918;2022-07-18T13:18:03;93918.31;;;26.87;34.25
40592;BME280;26301;42.832;23.918;2022-07-18T13:20:32;93900.59;;;26.79;34.97
40592;BME280;26301;42.832;23.918;2022-07-18T13:22:57;93897.25;;;26.90;34.54
40592;BME280;26301;42.832;23.918;2022-07-18T13:25:27;93919.09;;;27.26;35.40
40592;BME280;26301;42.832;23.918;2022-07-18T13:27:53;93910.94;;;27.31;35.74
40592;BME280;26301;42.832;23.918;2022-07-18T13:30:19;93895.81;;;27.31;36.01
40592;BME280;26301;42.832;23.918;2022-07-18T13:32:46;93914.16;;;27.45;33.71
40592;BME280;26301;42.832;23.918;2022-07-18T13:35:13;93911.81;;;27.44;34.16
40592;BME280;26301;42.832;23.918;2022-07-18T13:37:39;93918.22;;;27.43;33.57
40592;BME280;26301;42.832;23.918;2022-07-18T13:40:06;93914.56;;;27.26;33.33
40592;BME280;26301;42.832;23.918;2022-07-18T13:42:34;93915.41;;;27.09;34.63
40592;BME280;26301;42.832;23.918;2022-07-18T13:45:00;93889.44;;;26.38;35.08